Airport Name : Bardufoss

Other Name : Bardufoss

ICAO : ENDU

IATA : BDU

FAA :

Latitude : 69.055758

Longitude : 18.540356

Country : Norway

Local Date and Time : 18 Jan 2021 18:20

 

TAF (Terminal Aerodrome Forecast)

TAF ENDU 1812/1912 VRB03KT 9999 FEW010 BKN030 PROB40 TEMPO 1813/1818 4000 -SHSN VV014 PROB30 1903/1906 0800 FZFG VV004

 

METAR (METeorological Aerodrome Report)

ENDU 181650Z 00000KT 9999 VCSH FEW010 SCT020 BKN030 M06/M06 Q1006 NOSIG RMK WIND 1100FT 22003KT WIND 2200FT 31007KT

ENDU 181620Z 00000KT 9999 -SHSN FEW004 SCT020 BKN030 M06/M07 Q1006 NOSIG RMK WIND 1100FT 30003KT WIND 2200FT 30008KT

ENDU 181550Z 00000KT 9999 SCT020 BKN030 M06/M07 Q1006 NOSIG RMK WIND 1100FT 27006KT WIND 2200FT 30008KT

ENDU 181520Z 00000KT 9999 SCT020 BKN030 M06/M07 Q1006 NOSIG RMK WIND 1100FT 26006KT WIND 2200FT 29008KT

ENDU 181450Z 00000KT 9999 FEW008 SCT020 BKN030 M06/M07 Q1006 NOSIG RMK WIND 1100FT 28004KT WIND 2200FT 28010KT

ENDU 181420Z VRB01KT 9999 FEW008 SCT020 BKN030 M06/M07 Q1006 NOSIG RMK WIND 1100FT 31003KT WIND 2200FT 29010KT

ENDU 181350Z 00000KT 9999 VCSH SCT020 BKN030 M06/M07 Q1006 NOSIG RMK WIND 1100FT VRB03KT WIND 2200FT 29010KT

To Charter a Jet Click here.